createdAt,value
2018-02-01T00:00:34.887Z,4.60
2018-02-01T00:03:02.320Z,4.40
2018-02-01T00:05:29.726Z,4.37
2018-02-01T00:07:57.132Z,4.47
2018-02-01T00:10:24.560Z,3.83
2018-02-01T00:12:51.975Z,4.73
2018-02-01T00:15:19.386Z,4.77
2018-02-01T00:17:46.817Z,4.30
2018-02-01T00:20:14.235Z,4.30
2018-02-01T00:22:41.656Z,4.60
2018-02-01T00:25:09.074Z,4.50
2018-02-01T00:27:36.510Z,4.60
2018-02-01T00:30:03.924Z,4.67
2018-02-01T00:32:31.360Z,5.90
2018-02-01T00:34:58.768Z,4.90
2018-02-01T00:37:26.178Z,3.30
2018-02-01T00:39:53.607Z,3.97
2018-02-01T00:42:21.010Z,4.20
2018-02-01T00:44:48.422Z,3.80
2018-02-01T00:47:15.858Z,3.55
2018-02-01T00:49:43.268Z,3.80
2018-02-01T00:52:10.682Z,3.37
2018-02-01T00:54:38.107Z,3.17
2018-02-01T00:57:05.523Z,3.10
2018-02-01T00:59:32.936Z,3.03
2018-02-01T01:02:00.362Z,3.10
2018-02-01T01:04:27.770Z,3.23
2018-02-01T01:06:55.178Z,2.70
2018-02-01T01:09:22.607Z,2.80
2018-02-01T01:11:50.033Z,2.60
2018-02-01T01:14:17.446Z,3.07
2018-02-01T01:16:44.875Z,2.70
2018-02-01T01:19:12.278Z,2.70
2018-02-01T01:21:39.701Z,3.08
2018-02-01T01:24:07.139Z,2.97
2018-02-01T01:26:34.570Z,2.55
2018-02-01T01:29:01.993Z,2.40
2018-02-01T01:31:29.431Z,3.08
2018-02-01T01:33:56.862Z,2.70
2018-02-01T01:36:24.286Z,3.00
2018-02-01T01:38:51.735Z,3.37
2018-02-01T01:41:19.159Z,2.60
2018-02-01T01:43:46.582Z,2.72
2018-02-01T01:46:14.010Z,3.00
2018-02-01T01:48:41.446Z,2.95
2018-02-01T01:51:08.866Z,2.45
2018-02-01T01:53:36.294Z,2.50
2018-02-01T01:56:03.723Z,2.70
2018-02-01T01:58:31.143Z,2.97
2018-02-01T02:00:58.574Z,2.60
2018-02-01T02:03:26.002Z,2.70
2018-02-01T02:05:53.432Z,2.20
2018-02-01T02:08:20.866Z,3.12
2018-02-01T02:10:48.293Z,2.37
2018-02-01T02:13:15.959Z,2.40
2018-02-01T02:15:43.419Z,3.08
2018-02-01T02:18:10.834Z,3.00
2018-02-01T02:20:38.268Z,2.90
2018-02-01T02:23:05.699Z,2.80
2018-02-01T02:25:33.131Z,2.67
2018-02-01T02:28:00.547Z,2.50
2018-02-01T02:30:27.986Z,2.90
2018-02-01T02:32:55.410Z,2.65
2018-02-01T02:35:22.844Z,2.87
2018-02-01T02:37:50.282Z,2.60
2018-02-01T02:40:17.707Z,2.75
2018-02-01T02:42:45.121Z,2.70
2018-02-01T02:45:12.580Z,2.80
2018-02-01T02:47:39.993Z,2.80
2018-02-01T02:50:07.503Z,2.67
2018-02-01T02:52:34.954Z,2.70
2018-02-01T02:55:02.363Z,2.80
2018-02-01T02:57:29.784Z,2.90
2018-02-01T03:53:00.997Z,2.78
2018-02-01T03:55:28.457Z,2.40
2018-02-01T03:57:55.871Z,2.67
2018-02-01T04:00:23.281Z,2.50
2018-02-01T04:02:50.706Z,2.70
2018-02-01T04:05:18.129Z,2.80
2018-02-01T04:07:45.536Z,2.60
2018-02-01T04:10:12.964Z,2.70
2018-02-01T04:12:40.388Z,2.87
2018-02-01T04:15:07.805Z,2.65
2018-02-01T04:17:35.229Z,3.05
2018-02-01T04:20:02.652Z,2.83
2018-02-01T04:22:30.064Z,2.80
2018-02-01T04:24:57.481Z,2.80
2018-02-01T04:27:24.905Z,3.05
2018-02-01T04:29:52.332Z,2.90
2018-02-01T04:32:19.741Z,2.97
2018-02-01T04:34:47.140Z,2.60
2018-02-01T04:37:14.572Z,2.80
2018-02-01T04:39:41.980Z,2.90
2018-02-01T04:42:09.403Z,3.20
2018-02-01T04:44:36.816Z,3.20
2018-02-01T04:47:04.237Z,3.10
2018-02-01T04:49:31.652Z,2.58
2018-02-01T04:51:59.086Z,2.95
2018-02-01T04:54:26.501Z,3.03
2018-02-01T04:56:53.925Z,3.17
2018-02-01T04:59:21.350Z,3.10
2018-02-01T05:01:48.765Z,2.80
2018-02-01T05:04:16.185Z,2.70
2018-02-01T05:06:43.625Z,3.03
2018-02-01T05:09:11.029Z,4.13
2018-02-01T05:11:38.444Z,3.50
2018-02-01T05:14:05.860Z,2.50
2018-02-01T05:16:33.286Z,2.80
2018-02-01T05:19:00.701Z,3.20
2018-02-01T05:21:28.116Z,3.83
2018-02-01T05:23:55.537Z,2.90
2018-02-01T05:26:22.953Z,3.30
2018-02-01T05:28:50.373Z,3.20
2018-02-01T05:31:17.790Z,2.75
2018-02-01T05:33:45.220Z,4.05
2018-02-01T05:36:12.629Z,3.40
2018-02-01T05:38:40.058Z,3.50
2018-02-01T05:41:07.469Z,3.50
2018-02-01T05:43:34.881Z,3.55
2018-02-01T05:46:02.292Z,3.25
2018-02-01T05:48:29.713Z,3.33
2018-02-01T05:50:57.133Z,3.90
2018-02-01T05:53:24.549Z,3.80
2018-02-01T05:55:51.974Z,3.65
2018-02-01T05:58:19.381Z,3.37
2018-02-01T06:00:46.848Z,3.67
2018-02-01T06:03:14.262Z,3.40
2018-02-01T06:05:41.678Z,3.97
2018-02-01T06:08:09.105Z,3.80
2018-02-01T06:10:36.516Z,3.22
2018-02-01T06:13:03.933Z,3.75
2018-02-01T06:15:31.354Z,3.40
2018-02-01T06:17:58.769Z,3.55
2018-02-01T06:20:26.197Z,3.67
2018-02-01T06:22:53.600Z,4.20
2018-02-01T06:25:21.018Z,4.43
2018-02-01T06:27:48.442Z,3.95
2018-02-01T06:30:15.861Z,4.00
2018-02-01T06:32:43.278Z,4.15
2018-02-01T06:35:10.705Z,3.97
2018-02-01T06:37:38.301Z,3.42
2018-02-01T06:40:05.709Z,3.53
2018-02-01T06:42:33.173Z,2.92
2018-02-01T06:45:00.598Z,3.03
2018-02-01T06:47:28.009Z,3.37
2018-02-01T06:49:55.435Z,3.42
2018-02-01T06:52:22.849Z,3.30
2018-02-01T06:54:50.252Z,3.40
2018-02-01T06:57:17.684Z,3.50
2018-02-01T06:59:45.094Z,3.40
2018-02-01T07:02:12.514Z,3.92
2018-02-01T07:04:39.950Z,3.20
2018-02-01T07:07:07.382Z,3.25
2018-02-01T07:09:34.809Z,4.55
2018-02-01T07:12:02.234Z,4.22
2018-02-01T07:14:29.657Z,3.95
2018-02-01T07:16:57.073Z,3.85
2018-02-01T07:19:24.492Z,3.65
2018-02-01T07:21:51.909Z,3.80
2018-02-01T07:24:19.342Z,3.80
2018-02-01T07:26:47.291Z,3.67
2018-02-01T07:29:14.866Z,3.85
2018-02-01T07:31:42.303Z,3.42
2018-02-01T07:34:09.752Z,3.22
2018-02-01T07:36:37.157Z,4.00
2018-02-01T07:39:04.575Z,4.15
2018-02-01T07:41:32.012Z,5.00
2018-02-01T07:43:59.442Z,4.35
2018-02-01T07:46:30.465Z,5.32
2018-02-01T07:48:57.869Z,5.05
2018-02-01T07:51:25.299Z,4.70
2018-02-01T07:53:52.725Z,4.62
2018-02-01T07:56:20.158Z,4.68
2018-02-01T07:58:47.570Z,4.07
2018-02-01T08:01:14.982Z,4.12
2018-02-01T08:03:42.434Z,5.32
2018-02-01T08:06:09.845Z,4.40
2018-02-01T08:08:37.604Z,4.12
2018-02-01T08:11:05.138Z,4.32
2018-02-01T08:13:32.545Z,4.12
2018-02-01T08:15:59.970Z,3.95
2018-02-01T08:18:27.410Z,3.72
2018-02-01T08:20:54.829Z,3.95
2018-02-01T08:23:22.257Z,3.70
2018-02-01T08:25:49.677Z,4.55
2018-02-01T08:28:17.101Z,3.85
2018-02-01T08:30:44.538Z,5.25
2018-02-01T08:33:11.954Z,4.25
2018-02-01T08:35:39.385Z,4.37
2018-02-01T08:38:06.805Z,4.18
2018-02-01T08:40:34.213Z,3.30
2018-02-01T08:43:01.681Z,4.25
2018-02-01T08:45:29.105Z,3.58
2018-02-01T08:47:56.554Z,4.25
2018-02-01T08:50:23.981Z,4.00
2018-02-01T08:52:51.442Z,4.00
2018-02-01T08:55:18.881Z,4.05
2018-02-01T08:57:46.302Z,3.53
2018-02-01T09:00:13.712Z,3.53
2018-02-01T09:02:41.150Z,3.30
2018-02-01T09:05:08.577Z,3.47
2018-02-01T09:07:35.997Z,3.22
2018-02-01T09:10:03.434Z,3.30
2018-02-01T09:12:30.848Z,3.20
2018-02-01T09:14:58.270Z,3.80
2018-02-01T09:17:25.687Z,3.37
2018-02-01T09:19:53.118Z,3.60
2018-02-01T09:22:20.529Z,3.30
2018-02-01T09:24:47.943Z,3.83
2018-02-01T09:27:15.374Z,4.00
2018-02-01T09:29:42.794Z,3.67
2018-02-01T09:32:10.224Z,4.35
2018-02-01T09:34:37.649Z,3.60
2018-02-01T09:37:05.074Z,3.53
2018-02-01T09:39:32.501Z,3.40
2018-02-01T09:41:59.917Z,3.70
2018-02-01T09:44:27.392Z,3.65
2018-02-01T09:46:54.765Z,3.37
2018-02-01T09:49:22.186Z,4.05
2018-02-01T09:51:49.669Z,3.50
2018-02-01T09:54:17.088Z,4.15
2018-02-01T09:56:44.513Z,4.55
2018-02-01T09:59:11.948Z,3.80
2018-02-01T10:01:39.386Z,4.20
2018-02-01T10:04:06.821Z,5.05
2018-02-01T10:06:34.238Z,4.30
2018-02-01T10:09:01.673Z,4.15
2018-02-01T10:11:29.109Z,4.22
2018-02-01T10:13:56.529Z,4.75
2018-02-01T10:16:23.976Z,4.10
2018-02-01T10:18:51.378Z,3.87
2018-02-01T10:21:18.793Z,4.65
2018-02-01T10:23:46.237Z,4.00
2018-02-01T10:26:13.657Z,3.90
2018-02-01T10:28:41.064Z,3.70
2018-02-01T10:31:08.478Z,3.60
2018-02-01T10:33:35.909Z,4.05
2018-02-01T10:36:03.325Z,4.15
2018-02-01T10:38:30.745Z,3.20
2018-02-01T10:40:58.161Z,3.93
2018-02-01T10:43:25.578Z,3.45
2018-02-01T10:45:53.005Z,4.10
2018-02-01T10:48:20.418Z,3.20
2018-02-01T10:50:47.852Z,3.40
2018-02-01T10:53:15.249Z,3.60
2018-02-01T10:55:42.676Z,4.35
2018-02-01T10:58:10.096Z,7.32
2018-02-01T11:00:37.526Z,4.35
2018-02-01T11:03:04.966Z,4.05
2018-02-01T11:05:32.378Z,4.07
2018-02-01T11:07:59.779Z,4.50
2018-02-01T11:10:27.196Z,4.00
2018-02-01T11:12:54.612Z,4.10
2018-02-01T11:15:22.035Z,3.70
2018-02-01T11:17:49.433Z,4.37
2018-02-01T11:20:16.849Z,4.83
2018-02-01T11:22:44.250Z,3.67
2018-02-01T11:25:11.653Z,3.97
2018-02-01T11:27:39.078Z,3.83
2018-02-01T11:30:06.494Z,4.00
2018-02-01T11:32:33.912Z,3.53
2018-02-01T11:35:01.346Z,4.40
2018-02-01T11:37:28.770Z,3.37
2018-02-01T11:39:56.187Z,3.53
2018-02-01T11:42:23.604Z,3.20
2018-02-01T11:44:51.067Z,3.72
2018-02-01T11:47:18.441Z,3.25
2018-02-01T11:49:45.864Z,3.80
2018-02-01T11:52:13.303Z,3.92
2018-02-01T11:54:40.734Z,3.90
2018-02-01T11:57:08.162Z,4.00
2018-02-01T11:59:35.596Z,4.15
2018-02-01T12:02:03.124Z,3.92
2018-02-01T12:04:30.635Z,3.40
2018-02-01T12:06:58.053Z,3.45
2018-02-01T12:09:25.453Z,3.43
2018-02-01T12:11:52.883Z,3.50
2018-02-01T12:14:20.298Z,3.67
2018-02-01T12:16:47.765Z,4.28
2018-02-01T12:19:15.200Z,4.20
2018-02-01T12:21:42.610Z,3.58
2018-02-01T12:24:10.041Z,3.72
2018-02-01T12:26:37.473Z,4.05
2018-02-01T12:29:04.914Z,5.20
2018-02-01T12:31:32.329Z,4.00
2018-02-01T12:33:59.762Z,3.80
2018-02-01T12:36:27.185Z,4.50
2018-02-01T12:38:54.614Z,3.95
2018-02-01T12:41:22.177Z,3.55
2018-02-01T12:43:49.577Z,4.20
2018-02-01T12:46:17.005Z,3.80
2018-02-01T12:48:44.416Z,3.78
2018-02-01T12:51:11.838Z,3.60
2018-02-01T12:53:39.252Z,3.80
2018-02-01T12:56:06.664Z,5.13
2018-02-01T12:58:34.092Z,3.85
2018-02-01T13:01:01.507Z,3.60
2018-02-01T13:03:28.929Z,6.17
2018-02-01T13:05:56.374Z,4.97
2018-02-01T13:08:23.791Z,4.33
2018-02-01T13:10:51.206Z,3.77
2018-02-01T13:13:18.628Z,4.10
2018-02-01T13:15:46.010Z,4.40
2018-02-01T13:18:14.021Z,4.80
2018-02-01T13:20:41.470Z,5.03
2018-02-01T13:23:09.165Z,6.40
2018-02-01T13:25:36.827Z,9.82
2018-02-01T13:28:04.425Z,8.43
2018-02-01T13:30:31.919Z,4.85
2018-02-01T13:32:59.341Z,5.30
2018-02-01T13:35:26.776Z,4.77
2018-02-01T13:37:54.222Z,4.45
2018-02-01T13:40:21.630Z,4.40
2018-02-01T13:42:49.068Z,4.35
2018-02-01T13:45:16.489Z,3.80
2018-02-01T13:47:43.926Z,3.80
2018-02-01T13:50:11.355Z,4.65
2018-02-01T13:52:38.853Z,3.65
2018-02-01T13:55:06.290Z,3.40
2018-02-01T13:57:33.707Z,4.30
2018-02-01T14:00:01.152Z,4.30
2018-02-01T14:02:28.573Z,5.50
2018-02-01T14:04:56.001Z,4.53
2018-02-01T14:07:23.425Z,4.50
2018-02-01T14:09:50.841Z,4.65
2018-02-01T14:12:18.265Z,5.20
2018-02-01T14:14:45.701Z,6.07
2018-02-01T14:17:13.125Z,5.72
2018-02-01T14:19:40.542Z,3.67
2018-02-01T14:22:07.970Z,4.53
2018-02-01T14:24:36.237Z,4.07
2018-02-01T14:27:03.656Z,4.07
2018-02-01T14:29:31.101Z,4.55
2018-02-01T14:31:58.509Z,4.22
2018-02-01T14:34:25.934Z,3.60
2018-02-01T14:36:53.365Z,4.30
2018-02-01T14:39:20.785Z,4.72
2018-02-01T14:41:48.271Z,5.35
2018-02-01T14:44:15.733Z,4.40
2018-02-01T14:46:43.139Z,4.78
2018-02-01T14:49:10.570Z,4.72
2018-02-01T14:51:38.011Z,3.78
2018-02-01T14:54:05.433Z,4.45
2018-02-01T14:56:32.845Z,4.25
2018-02-01T14:59:00.242Z,4.07
2018-02-01T15:01:27.673Z,5.10
2018-02-01T15:03:55.105Z,4.93
2018-02-01T15:06:22.537Z,4.18
2018-02-01T15:08:49.949Z,4.37
2018-02-01T15:11:17.377Z,4.85
2018-02-01T15:13:44.793Z,5.22
2018-02-01T15:16:12.290Z,4.57
2018-02-01T15:18:39.784Z,4.80
2018-02-01T15:21:07.230Z,5.15
2018-02-01T15:23:34.672Z,4.95
2018-02-01T15:26:02.085Z,4.22
2018-02-01T15:28:29.598Z,5.18
2018-02-01T15:30:57.013Z,4.10
2018-02-01T15:33:24.437Z,5.82
2018-02-01T15:35:51.857Z,5.18
2018-02-01T15:38:19.299Z,4.65
2018-02-01T15:40:46.802Z,5.20
2018-02-01T15:43:14.304Z,4.15
2018-02-01T15:45:41.773Z,5.57
2018-02-01T15:48:09.254Z,5.55
2018-02-01T15:50:36.669Z,4.90
2018-02-01T15:53:04.093Z,4.90
2018-02-01T15:55:31.553Z,4.60
2018-02-01T15:57:58.970Z,4.93
2018-02-01T16:00:26.615Z,5.45
2018-02-01T16:02:54.063Z,5.40
2018-02-01T16:05:21.481Z,4.75
2018-02-01T16:07:48.910Z,5.20
2018-02-01T16:10:16.326Z,5.20
2018-02-01T16:12:43.798Z,4.30
2018-02-01T16:15:11.209Z,6.82
2018-02-01T16:17:38.642Z,6.30
2018-02-01T16:20:06.050Z,5.23
2018-02-01T16:22:33.464Z,5.68
2018-02-01T16:25:01.171Z,4.75
2018-02-01T16:27:29.783Z,6.70
2018-02-01T16:29:57.209Z,6.90
2018-02-01T16:32:24.629Z,6.05
2018-02-01T16:34:52.070Z,4.65
2018-02-01T16:37:19.473Z,6.32
2018-02-01T16:39:46.885Z,5.40
2018-02-01T16:42:14.326Z,5.35
2018-02-01T16:44:41.745Z,6.00
2018-02-01T16:47:09.167Z,5.62
2018-02-01T16:49:36.592Z,5.30
2018-02-01T16:52:04.170Z,5.47
2018-02-01T16:54:31.625Z,5.55
2018-02-01T16:56:59.061Z,6.05
2018-02-01T16:59:26.485Z,6.30
2018-02-01T17:01:53.910Z,5.70
2018-02-01T17:04:21.348Z,7.07
2018-02-01T17:06:48.774Z,8.13
2018-02-01T17:09:16.190Z,7.30
2018-02-01T17:11:43.621Z,6.50
2018-02-01T17:14:11.054Z,5.40
2018-02-01T17:16:38.477Z,5.95
2018-02-01T17:19:05.897Z,6.75
2018-02-01T17:21:33.325Z,5.30
2018-02-01T17:24:00.756Z,5.93
2018-02-01T17:26:28.175Z,6.43
2018-02-01T17:28:55.598Z,5.87
2018-02-01T17:31:23.026Z,5.00
2018-02-01T17:33:50.451Z,5.90
2018-02-01T17:36:17.877Z,6.10
2018-02-01T17:38:45.299Z,6.00
2018-02-01T17:41:12.730Z,5.93
2018-02-01T17:43:40.209Z,6.47
2018-02-01T17:46:07.649Z,5.95
2018-02-01T17:48:35.067Z,5.30
2018-02-01T17:51:02.485Z,5.75
2018-02-01T17:53:29.922Z,5.90
2018-02-01T17:55:57.354Z,4.90
2018-02-01T17:58:24.875Z,5.65
2018-02-01T18:00:52.307Z,5.28
2018-02-01T18:03:19.763Z,4.85
2018-02-01T18:05:47.206Z,5.68
2018-02-01T18:08:14.625Z,6.15
2018-02-01T18:10:42.060Z,5.03
2018-02-01T18:13:09.478Z,5.20
2018-02-01T18:15:36.902Z,6.18
2018-02-01T18:18:04.329Z,6.18
2018-02-01T18:20:31.754Z,5.40
2018-02-01T18:22:59.165Z,5.57
2018-02-01T18:25:26.602Z,6.43
2018-02-01T18:27:54.035Z,6.97
2018-02-01T18:30:21.465Z,6.75
2018-02-01T18:32:48.886Z,6.53
2018-02-01T18:35:16.322Z,6.53
2018-02-01T18:37:43.751Z,5.72
2018-02-01T18:40:11.192Z,8.30
2018-02-01T18:42:38.629Z,5.87
2018-02-01T18:45:06.050Z,6.40
2018-02-01T18:47:33.499Z,5.20
2018-02-01T18:50:00.927Z,5.82
2018-02-01T18:52:28.347Z,6.97
2018-02-01T18:54:55.790Z,6.20
2018-02-01T18:57:23.263Z,5.85
2018-02-01T18:59:50.657Z,6.72
2018-02-01T19:02:18.106Z,6.55
2018-02-01T19:04:45.539Z,6.10
2018-02-01T19:07:12.975Z,6.40
2018-02-01T19:09:40.405Z,6.90
2018-02-01T19:12:07.829Z,6.47
2018-02-01T19:14:35.265Z,6.40
2018-02-01T19:17:02.697Z,6.20
2018-02-01T19:19:30.119Z,6.00
2018-02-01T19:21:57.562Z,7.00
2018-02-01T19:24:24.994Z,6.45
2018-02-01T19:26:52.408Z,6.97
2018-02-01T19:29:20.006Z,6.70
2018-02-01T19:31:47.441Z,7.22
2018-02-01T19:34:14.946Z,7.10
2018-02-01T19:36:42.508Z,6.30
2018-02-01T19:39:10.036Z,5.60
2018-02-01T19:41:37.611Z,6.93
2018-02-01T19:44:05.834Z,8.60
2018-02-01T19:46:33.957Z,7.45
2018-02-01T19:49:02.001Z,6.93
2018-02-01T19:51:30.160Z,6.32
2018-02-01T19:53:58.004Z,6.12
2018-02-01T19:56:26.284Z,7.00
2018-02-01T19:58:54.833Z,7.07
2018-02-01T20:01:23.156Z,7.00
2018-02-01T20:03:51.527Z,6.35
2018-02-01T20:06:19.709Z,6.90
2018-02-01T20:08:47.662Z,6.32
2018-02-01T20:11:15.862Z,5.85
2018-02-01T20:13:43.908Z,6.80
2018-02-01T20:16:12.096Z,5.78
2018-02-01T20:18:40.391Z,6.75
2018-02-01T20:21:08.418Z,5.85
2018-02-01T20:23:36.611Z,6.30
2018-02-01T20:26:04.638Z,7.68
2018-02-01T20:28:33.076Z,6.35
2018-02-01T20:31:01.204Z,6.62
2018-02-01T20:33:29.158Z,5.90
2018-02-01T20:35:57.619Z,6.43
2018-02-01T20:38:26.075Z,6.57
2018-02-01T20:40:53.949Z,6.62
2018-02-01T20:43:21.808Z,6.78
2018-02-01T20:45:49.693Z,6.70
2018-02-01T20:48:17.419Z,5.78
2018-02-01T20:50:45.239Z,6.20
2018-02-01T20:53:12.837Z,7.90
2018-02-01T20:55:40.368Z,6.47
2018-02-01T20:58:07.825Z,6.70
2018-02-01T21:00:35.276Z,6.55
2018-02-01T21:03:02.689Z,6.53
2018-02-01T21:05:30.161Z,6.32
2018-02-01T21:07:57.583Z,6.82
2018-02-01T21:10:25.014Z,6.35
2018-02-01T21:12:52.447Z,6.18
2018-02-01T21:15:19.870Z,7.10
2018-02-01T21:17:47.302Z,6.85
2018-02-01T21:20:14.722Z,6.55
2018-02-01T21:22:42.140Z,6.65
2018-02-01T21:25:09.570Z,7.12
2018-02-01T21:27:36.993Z,8.65
2018-02-01T21:30:04.421Z,7.87
2018-02-01T21:32:31.854Z,7.62
2018-02-01T21:34:59.279Z,7.65
2018-02-01T21:37:26.701Z,7.53
2018-02-01T21:39:54.142Z,7.32
2018-02-01T21:42:21.561Z,8.80
2018-02-01T21:44:48.975Z,7.75
2018-02-01T21:47:16.408Z,6.95
2018-02-01T21:49:43.837Z,6.45
2018-02-01T21:52:11.270Z,7.20
2018-02-01T21:54:38.701Z,6.62
2018-02-01T21:57:06.121Z,5.75
2018-02-01T21:59:33.532Z,5.90
2018-02-01T22:02:00.968Z,6.87
2018-02-01T22:04:28.386Z,6.43
2018-02-01T22:06:55.809Z,6.62
2018-02-01T22:09:23.233Z,6.45
2018-02-01T22:11:50.666Z,7.40
2018-02-01T22:14:18.094Z,6.65
2018-02-01T22:16:45.585Z,6.60
2018-02-01T22:19:13.026Z,7.53
2018-02-01T22:21:40.456Z,7.10
2018-02-01T22:24:07.869Z,7.22
2018-02-01T22:26:35.286Z,6.68
2018-02-01T22:29:02.697Z,6.22
2018-02-01T22:31:30.134Z,6.18
2018-02-01T22:33:57.550Z,6.80
2018-02-01T22:36:24.970Z,6.50
2018-02-01T22:38:52.393Z,7.95
2018-02-01T22:41:19.824Z,7.05
2018-02-01T22:43:47.243Z,5.70
2018-02-01T22:46:14.657Z,6.78
2018-02-01T22:48:42.073Z,6.30
2018-02-01T22:51:09.530Z,6.62
2018-02-01T22:53:36.953Z,6.47
2018-02-01T22:56:04.377Z,5.97
2018-02-01T22:58:31.807Z,6.35
2018-02-01T23:00:59.225Z,5.95
2018-02-01T23:03:26.655Z,5.65
2018-02-01T23:05:54.085Z,5.87
2018-02-01T23:08:21.505Z,5.78
2018-02-01T23:10:49.009Z,6.80
2018-02-01T23:13:16.448Z,6.00
2018-02-01T23:15:43.866Z,6.15
2018-02-01T23:18:11.278Z,6.18
2018-02-01T23:20:38.706Z,6.30
2018-02-01T23:23:06.120Z,6.68
2018-02-01T23:25:33.546Z,6.18
2018-02-01T23:28:00.965Z,6.47
2018-02-01T23:30:28.401Z,6.70
2018-02-01T23:32:55.818Z,6.43
2018-02-01T23:35:23.241Z,6.30
2018-02-01T23:37:50.674Z,6.45
2018-02-01T23:40:18.089Z,6.70
2018-02-01T23:42:45.506Z,6.05
2018-02-01T23:45:12.942Z,6.05
2018-02-01T23:47:40.373Z,6.80
2018-02-01T23:50:07.806Z,6.85
2018-02-01T23:52:35.229Z,7.00
2018-02-01T23:55:02.646Z,6.72
2018-02-01T23:57:30.074Z,6.15
2018-02-01T23:59:57.490Z,6.78
